createdAt,value
2023-05-28T00:01:02.370Z,15.35
2023-05-28T00:03:32.886Z,16.92
2023-05-28T00:06:00.446Z,17.58
2023-05-28T00:08:27.470Z,16.08
2023-05-28T00:11:00.919Z,14.30
2023-05-28T00:13:30.742Z,13.43
2023-05-28T00:15:57.969Z,16.83
2023-05-28T00:18:25.169Z,14.75
2023-05-28T00:20:52.421Z,16.00
2023-05-28T00:23:19.868Z,15.27
2023-05-28T00:25:46.945Z,16.83
2023-05-28T00:28:14.133Z,15.18
2023-05-28T00:30:41.373Z,18.90
2023-05-28T00:33:08.492Z,17.52
2023-05-28T00:35:35.969Z,17.48
2023-05-28T00:38:03.234Z,16.73
2023-05-28T00:40:30.442Z,16.55
2023-05-28T00:42:57.454Z,18.95
2023-05-28T00:45:24.477Z,16.92
2023-05-28T00:47:52.454Z,19.00
2023-05-28T00:50:21.573Z,14.50
2023-05-28T00:52:51.700Z,15.45
2023-05-28T00:55:18.987Z,16.30
2023-05-28T00:57:47.873Z,16.17
2023-05-28T01:00:15.342Z,20.10
2023-05-28T01:02:42.549Z,15.65
2023-05-28T01:05:10.569Z,19.95
2023-05-28T01:07:38.070Z,16.90
2023-05-28T01:10:06.204Z,16.30
2023-05-28T01:12:33.823Z,18.27
2023-05-28T01:15:01.722Z,18.20
2023-05-28T01:17:28.993Z,21.30
2023-05-28T01:19:58.492Z,19.88
2023-05-28T01:22:29.665Z,17.02
2023-05-28T01:24:58.352Z,15.30
2023-05-28T01:27:26.224Z,14.98
2023-05-28T01:29:53.310Z,20.38
2023-05-28T01:32:20.737Z,17.08
2023-05-28T01:34:47.778Z,18.77
2023-05-28T01:37:17.737Z,18.83
2023-05-28T01:39:47.883Z,21.45
2023-05-28T01:42:15.839Z,21.85
2023-05-28T01:44:43.581Z,20.88
2023-05-28T01:47:13.798Z,19.85
2023-05-28T01:49:42.998Z,23.65
2023-05-28T01:52:13.693Z,18.63
2023-05-28T01:54:41.548Z,18.75
2023-05-28T01:57:08.758Z,20.60
2023-05-28T01:59:35.812Z,21.75
2023-05-28T02:02:03.512Z,15.70
2023-05-28T02:04:30.730Z,12.00
2023-05-28T02:06:57.748Z,21.27
2023-05-28T02:09:25.662Z,18.23
2023-05-28T02:11:52.792Z,18.40
2023-05-28T02:14:19.828Z,24.63
2023-05-28T02:16:49.412Z,18.45
2023-05-28T02:19:17.299Z,21.13
2023-05-28T02:21:44.567Z,20.60
2023-05-28T02:24:11.801Z,24.42
2023-05-28T02:26:38.874Z,24.38
2023-05-28T02:29:06.675Z,23.80
2023-05-28T02:31:36.731Z,24.63
2023-05-28T02:34:03.842Z,25.35
2023-05-28T02:36:31.264Z,22.15
2023-05-28T02:38:58.543Z,22.10
2023-05-28T02:41:27.290Z,22.92
2023-05-28T02:43:56.791Z,22.48
2023-05-28T02:46:24.130Z,21.80
2023-05-28T02:48:51.315Z,26.00
2023-05-28T02:51:20.224Z,24.30
2023-05-28T02:54:01.513Z,24.38
2023-05-28T02:56:28.577Z,24.27
2023-05-28T02:58:55.778Z,26.92
2023-05-28T03:01:23.039Z,26.42
2023-05-28T03:03:50.928Z,18.23
2023-05-28T03:06:18.666Z,23.00
2023-05-28T03:08:48.969Z,22.95
2023-05-28T03:11:16.069Z,22.55
2023-05-28T03:13:43.098Z,19.80
2023-05-28T03:16:10.364Z,26.00
2023-05-28T03:18:37.871Z,26.38
2023-05-28T03:21:06.312Z,24.17
2023-05-28T03:23:35.742Z,22.92
2023-05-28T03:26:10.565Z,24.50
2023-05-28T03:28:38.156Z,26.92
2023-05-28T03:31:18.116Z,15.38
2023-05-28T03:33:45.254Z,25.13
2023-05-28T03:36:13.021Z,25.23
2023-05-28T03:38:40.929Z,22.17
2023-05-28T03:41:08.002Z,21.60
2023-05-28T03:43:35.548Z,25.88
2023-05-28T03:46:03.263Z,22.88
2023-05-28T03:48:30.378Z,23.77
2023-05-28T03:50:58.042Z,22.85
2023-05-28T03:53:25.173Z,22.42
2023-05-28T03:55:53.202Z,29.48
2023-05-28T03:58:24.629Z,31.95
2023-05-28T04:00:51.767Z,31.33
2023-05-28T04:03:21.401Z,29.65
2023-05-28T04:05:48.635Z,30.15
2023-05-28T04:08:16.166Z,32.33
2023-05-28T04:10:43.200Z,24.35
2023-05-28T04:13:10.167Z,25.90
2023-05-28T04:15:37.316Z,30.58
2023-05-28T04:18:04.425Z,24.20
2023-05-28T04:20:33.995Z,23.45
2023-05-28T04:23:01.511Z,27.27
2023-05-28T04:25:29.779Z,30.90
2023-05-28T04:27:59.427Z,28.75
2023-05-28T04:30:26.737Z,25.13
2023-05-28T04:32:53.919Z,26.25
2023-05-28T04:35:22.566Z,24.77
2023-05-28T04:37:52.250Z,27.10
2023-05-28T04:40:20.461Z,29.73
2023-05-28T04:42:48.682Z,26.13
2023-05-28T04:45:17.135Z,29.50
2023-05-28T04:47:46.809Z,31.50
2023-05-28T04:50:14.064Z,33.90
2023-05-28T04:52:41.238Z,35.03
2023-05-28T04:55:08.662Z,32.10
2023-05-28T04:57:35.936Z,30.60
2023-05-28T05:00:04.757Z,32.88
2023-05-28T05:02:33.433Z,31.77
2023-05-28T05:05:00.579Z,28.88
2023-05-28T05:07:29.527Z,32.45
2023-05-28T05:09:57.278Z,37.08
2023-05-28T05:12:24.298Z,29.10
2023-05-28T05:14:51.325Z,25.90
2023-05-28T05:17:18.455Z,36.65
2023-05-28T05:19:45.920Z,34.67
2023-05-28T05:22:13.393Z,32.92
2023-05-28T05:24:43.556Z,37.78
2023-05-28T05:27:10.787Z,41.72
2023-05-28T05:29:37.873Z,39.95
2023-05-28T05:32:05.351Z,41.25
2023-05-28T05:34:32.440Z,42.28
2023-05-28T05:37:00.168Z,56.80
2023-05-28T05:39:27.157Z,44.20
2023-05-28T05:42:12.970Z,48.80
2023-05-28T05:44:43.836Z,40.95
2023-05-28T05:47:10.885Z,41.75
2023-05-28T05:49:38.851Z,49.83
2023-05-28T05:52:06.446Z,37.88
2023-05-28T05:54:36.168Z,50.00
2023-05-28T05:57:06.204Z,50.60
2023-05-28T05:59:33.982Z,49.70
2023-05-28T06:02:02.364Z,56.33
2023-05-28T06:04:33.414Z,55.97
2023-05-28T06:07:21.467Z,63.08
2023-05-28T06:09:51.296Z,53.33
2023-05-28T06:12:22.414Z,52.90
2023-05-28T06:14:50.362Z,58.20
2023-05-28T06:17:18.914Z,49.83
2023-05-28T06:19:46.067Z,55.95
2023-05-28T06:22:15.455Z,54.75
2023-05-28T06:24:43.903Z,57.58
2023-05-28T06:27:11.114Z,55.70
2023-05-28T06:29:38.260Z,54.25
2023-05-28T06:32:05.888Z,50.85
2023-05-28T06:34:33.283Z,51.63
2023-05-28T06:37:01.572Z,51.60
2023-05-28T06:39:29.077Z,47.90
2023-05-28T06:41:56.397Z,56.67
2023-05-28T06:44:37.260Z,51.20
2023-05-28T06:47:08.811Z,53.63
2023-05-28T06:49:36.477Z,54.38
2023-05-28T06:52:03.867Z,49.97
2023-05-28T06:54:31.025Z,53.05
2023-05-28T06:56:58.598Z,53.53
2023-05-28T06:59:48.751Z,49.13
2023-05-28T07:02:51.566Z,43.72
2023-05-28T07:05:39.265Z,49.13
2023-05-28T07:08:06.718Z,48.83
2023-05-28T07:10:33.708Z,51.13
2023-05-28T07:13:01.390Z,52.75
2023-05-28T07:15:28.508Z,45.47
2023-05-28T07:17:56.449Z,51.17
2023-05-28T07:20:23.622Z,48.20
2023-05-28T07:22:58.175Z,45.60
2023-05-28T07:25:25.456Z,41.30
2023-05-28T07:27:52.622Z,38.15
2023-05-28T07:30:27.243Z,43.83
2023-05-28T07:32:57.645Z,40.17
2023-05-28T07:35:25.710Z,42.47
2023-05-28T07:37:57.022Z,37.60
2023-05-28T07:40:24.530Z,32.97
2023-05-28T07:42:51.748Z,37.45
2023-05-28T07:45:18.905Z,34.47
2023-05-28T07:47:46.483Z,42.50
2023-05-28T07:50:48.889Z,35.22
2023-05-28T07:53:30.388Z,41.70
2023-05-28T07:55:57.972Z,36.00
2023-05-28T07:58:24.981Z,30.73
2023-05-28T08:00:52.985Z,32.85
2023-05-28T08:03:20.193Z,34.42
2023-05-28T08:05:49.555Z,31.25
2023-05-28T08:08:16.740Z,30.48
2023-05-28T08:10:44.396Z,27.27
2023-05-28T08:13:12.015Z,27.25
2023-05-28T08:15:39.181Z,28.55
2023-05-28T08:18:08.916Z,27.20
2023-05-28T08:20:36.719Z,24.45
2023-05-28T08:23:24.163Z,23.55
2023-05-28T08:25:53.386Z,29.20
2023-05-28T08:28:26.526Z,31.58
2023-05-28T08:30:53.731Z,27.83
2023-05-28T08:33:46.979Z,21.77
2023-05-28T08:36:14.565Z,21.77
2023-05-28T08:38:41.630Z,21.27
2023-05-28T08:41:10.698Z,23.60
2023-05-28T08:43:37.966Z,23.85
2023-05-28T08:46:05.868Z,23.65
2023-05-28T08:48:43.577Z,20.00
2023-05-28T08:51:12.555Z,18.40
2023-05-28T08:53:48.444Z,22.13
2023-05-28T08:56:22.209Z,18.38
2023-05-28T08:58:51.675Z,15.32
2023-05-28T09:01:18.945Z,17.50
2023-05-28T09:03:55.732Z,13.73
2023-05-28T09:06:32.432Z,19.48
2023-05-28T09:09:00.738Z,19.85
2023-05-28T09:11:45.732Z,17.35
2023-05-28T09:14:14.190Z,18.38
2023-05-28T09:16:42.971Z,19.42
2023-05-28T09:19:16.214Z,18.55
2023-05-28T09:21:59.140Z,14.63
2023-05-28T09:24:35.456Z,19.50
2023-05-28T09:27:08.135Z,15.50
2023-05-28T09:29:37.034Z,14.40
2023-05-28T09:32:04.327Z,11.90
2023-05-28T09:34:32.883Z,8.35
2023-05-28T09:37:07.849Z,13.18
2023-05-28T09:39:34.997Z,9.98
2023-05-28T09:42:12.744Z,11.40
2023-05-28T09:44:41.213Z,10.27
2023-05-28T09:47:15.867Z,14.63
2023-05-28T09:49:47.871Z,10.60
2023-05-28T09:52:22.277Z,9.05
2023-05-28T09:54:54.368Z,12.75
2023-05-28T09:57:27.897Z,9.60
2023-05-28T09:59:58.284Z,9.38
2023-05-28T10:02:52.862Z,12.40
2023-05-28T10:05:22.920Z,12.60
2023-05-28T10:07:53.765Z,8.32
2023-05-28T10:10:22.340Z,10.55
2023-05-28T10:12:54.585Z,10.05
2023-05-28T10:15:21.979Z,9.35
2023-05-28T10:17:50.590Z,10.05
2023-05-28T10:20:19.549Z,12.32
2023-05-28T10:22:47.250Z,8.50
2023-05-28T10:25:14.523Z,10.95
2023-05-28T10:27:46.430Z,13.10
2023-05-28T10:30:14.147Z,9.88
2023-05-28T10:32:42.921Z,9.52
2023-05-28T10:35:13.478Z,11.57
2023-05-28T10:37:40.911Z,11.82
2023-05-28T10:40:11.481Z,11.35
2023-05-28T10:42:42.792Z,10.13
2023-05-28T10:45:12.189Z,11.88
2023-05-28T10:47:52.068Z,8.77
2023-05-28T10:50:20.387Z,11.13
2023-05-28T10:53:09.575Z,7.63
2023-05-28T10:55:51.429Z,11.60
2023-05-28T10:58:28.876Z,10.93
2023-05-28T11:01:05.742Z,12.93
2023-05-28T11:03:47.133Z,10.55
2023-05-28T11:06:15.358Z,8.88
2023-05-28T11:08:44.661Z,13.18
2023-05-28T11:11:16.692Z,7.53
2023-05-28T11:13:49.417Z,9.77
2023-05-28T11:16:18.413Z,12.13
2023-05-28T11:19:18.093Z,8.40
2023-05-28T11:21:54.292Z,8.93
2023-05-28T11:24:21.582Z,8.30
2023-05-28T11:26:48.628Z,11.00
2023-05-28T11:29:16.897Z,8.50
2023-05-28T11:31:44.133Z,11.60
2023-05-28T11:34:11.344Z,10.32
2023-05-28T11:36:45.013Z,10.13
2023-05-28T11:39:12.915Z,11.02
2023-05-28T11:41:40.185Z,9.27
2023-05-28T11:44:21.520Z,9.88
2023-05-28T11:46:52.332Z,6.78
2023-05-28T11:49:19.637Z,8.52
2023-05-28T11:51:46.738Z,8.82
2023-05-28T11:54:14.712Z,8.65
2023-05-28T11:56:41.659Z,9.30
2023-05-28T11:59:08.774Z,9.65
2023-05-28T12:01:35.984Z,8.50
2023-05-28T12:04:07.324Z,11.85
2023-05-28T12:06:41.086Z,9.77
2023-05-28T12:09:08.835Z,10.60
2023-05-28T12:11:36.070Z,9.88
2023-05-28T12:14:11.728Z,8.45
2023-05-28T12:16:49.196Z,11.73
2023-05-28T12:19:16.880Z,10.95
2023-05-28T12:21:45.617Z,10.30
2023-05-28T12:24:16.850Z,10.68
2023-05-28T12:26:43.946Z,9.43
2023-05-28T12:29:11.823Z,10.55
2023-05-28T12:31:39.043Z,9.10
2023-05-28T12:34:06.500Z,10.50
2023-05-28T12:36:34.131Z,12.02
2023-05-28T12:39:01.576Z,8.18
2023-05-28T12:41:29.056Z,14.10
2023-05-28T12:43:57.670Z,11.00
2023-05-28T12:46:24.806Z,9.50
2023-05-28T12:48:51.913Z,6.18
2023-05-28T12:51:19.528Z,9.75
2023-05-28T12:53:46.749Z,10.18
2023-05-28T12:56:14.638Z,10.48
2023-05-28T12:58:41.744Z,12.18
2023-05-28T13:01:09.352Z,12.48
2023-05-28T13:03:36.785Z,11.27
2023-05-28T13:06:03.974Z,9.25
2023-05-28T13:08:30.989Z,11.73
2023-05-28T13:10:58.437Z,9.48
2023-05-28T13:13:25.394Z,11.38
2023-05-28T13:15:52.473Z,11.25
2023-05-28T13:18:19.565Z,8.55
2023-05-28T13:20:47.742Z,8.95
2023-05-28T13:23:14.990Z,11.30
2023-05-28T13:25:42.161Z,9.88
2023-05-28T13:28:09.197Z,13.13
2023-05-28T13:30:36.483Z,8.10
2023-05-28T13:33:03.949Z,9.45
2023-05-28T13:35:31.100Z,7.75
2023-05-28T13:37:58.466Z,8.80
2023-05-28T13:40:29.167Z,11.23
2023-05-28T13:42:56.772Z,7.60
2023-05-28T13:45:23.832Z,7.55
2023-05-28T13:47:50.972Z,10.25
2023-05-28T13:50:18.050Z,9.23
2023-05-28T13:52:45.461Z,8.40
2023-05-28T13:55:12.411Z,11.70
2023-05-28T13:57:39.553Z,12.18
2023-05-28T14:00:10.155Z,8.30
2023-05-28T14:02:38.124Z,10.70
2023-05-28T14:05:06.053Z,8.07
2023-05-28T14:07:33.098Z,7.60
2023-05-28T14:10:00.190Z,8.25
2023-05-28T14:12:27.323Z,7.55
2023-05-28T14:14:54.379Z,8.52
2023-05-28T14:17:21.419Z,8.98
2023-05-28T14:19:48.720Z,7.90
2023-05-28T14:22:16.289Z,8.73
2023-05-28T14:24:43.311Z,6.03
2023-05-28T14:27:11.064Z,8.77
2023-05-28T14:29:38.056Z,8.63
2023-05-28T14:32:07.032Z,7.10
2023-05-28T14:34:34.442Z,11.80
2023-05-28T14:37:01.539Z,8.30
2023-05-28T14:39:28.972Z,10.07
2023-05-28T14:41:55.964Z,10.10
2023-05-28T14:44:22.994Z,9.02
2023-05-28T14:46:50.138Z,7.90
2023-05-28T14:49:17.318Z,8.95
2023-05-28T14:51:44.332Z,7.95
2023-05-28T14:54:11.325Z,9.25
2023-05-28T14:56:38.381Z,8.98
2023-05-28T14:59:05.598Z,7.47
2023-05-28T15:01:32.828Z,7.82
2023-05-28T15:03:59.988Z,8.15
2023-05-28T15:06:27.110Z,7.13
2023-05-28T15:08:54.065Z,9.07
2023-05-28T15:11:22.934Z,8.07
2023-05-28T15:13:50.177Z,8.70
2023-05-28T15:16:17.695Z,10.30
2023-05-28T15:18:44.808Z,9.50
2023-05-28T15:21:11.960Z,9.52
2023-05-28T15:23:39.630Z,8.57
2023-05-28T15:26:06.845Z,7.35
2023-05-28T15:28:34.168Z,10.27
2023-05-28T15:31:01.635Z,9.23
2023-05-28T15:33:29.679Z,9.10
2023-05-28T15:35:57.133Z,9.15
2023-05-28T15:38:24.517Z,9.88
2023-05-28T15:40:51.759Z,9.43
2023-05-28T15:43:19.799Z,8.77
2023-05-28T15:45:46.953Z,11.57
2023-05-28T15:48:14.043Z,9.50
2023-05-28T15:50:41.129Z,11.68
2023-05-28T15:53:08.430Z,7.05
2023-05-28T15:55:35.894Z,8.52
2023-05-28T15:58:03.014Z,7.28
2023-05-28T16:00:30.622Z,8.23
2023-05-28T16:02:59.126Z,6.82
2023-05-28T16:05:26.540Z,10.90
2023-05-28T16:07:53.768Z,9.93
2023-05-28T16:10:22.086Z,9.65
2023-05-28T16:12:54.549Z,9.73
2023-05-28T16:15:21.825Z,7.22
2023-05-28T16:17:50.725Z,8.45
2023-05-28T16:20:18.044Z,9.88
2023-05-28T16:22:46.227Z,7.55
2023-05-28T16:25:14.036Z,9.32
2023-05-28T16:27:41.200Z,10.30
2023-05-28T16:30:08.752Z,8.15
2023-05-28T16:32:37.880Z,10.05
2023-05-28T16:35:05.443Z,10.45
2023-05-28T16:37:33.048Z,7.78
2023-05-28T16:40:00.327Z,10.82
2023-05-28T16:42:27.562Z,11.88
2023-05-28T16:44:54.725Z,12.95
2023-05-28T16:47:22.166Z,7.70
2023-05-28T16:49:49.245Z,8.48
2023-05-28T16:52:18.950Z,9.00
2023-05-28T16:54:47.264Z,8.77
2023-05-28T16:57:14.633Z,5.88
2023-05-28T16:59:41.764Z,9.65
2023-05-28T17:02:10.780Z,8.93
2023-05-28T17:04:38.887Z,10.35
2023-05-28T17:07:09.237Z,7.47
2023-05-28T17:09:36.362Z,8.23
2023-05-28T17:12:03.512Z,12.02
2023-05-28T17:14:30.846Z,11.07
2023-05-28T17:16:57.979Z,12.02
2023-05-28T17:19:25.275Z,12.88
2023-05-28T17:21:52.639Z,11.15
2023-05-28T17:24:19.777Z,13.18
2023-05-28T17:26:47.154Z,12.75
2023-05-28T17:29:14.369Z,13.30
2023-05-28T17:31:41.723Z,15.48
2023-05-28T17:34:09.269Z,13.75
2023-05-28T17:36:37.816Z,13.13
2023-05-28T17:39:05.202Z,12.77
2023-05-28T17:41:32.314Z,13.35
2023-05-28T17:43:59.433Z,15.73
2023-05-28T17:46:34.012Z,9.02
2023-05-28T17:49:02.288Z,15.13
2023-05-28T17:51:31.531Z,15.07
2023-05-28T17:53:58.786Z,13.25
2023-05-28T17:56:26.929Z,14.02
2023-05-28T17:58:54.031Z,13.85
2023-05-28T18:01:21.320Z,13.02
2023-05-28T18:03:48.628Z,12.65
2023-05-28T18:06:15.834Z,13.23
2023-05-28T18:08:43.060Z,12.60
2023-05-28T18:11:10.340Z,11.80
2023-05-28T18:13:37.722Z,13.80
2023-05-28T18:16:04.931Z,13.95
2023-05-28T18:18:32.118Z,9.57
2023-05-28T18:20:59.995Z,13.10
2023-05-28T18:23:29.108Z,17.00
2023-05-28T18:25:56.180Z,14.52
2023-05-28T18:28:24.986Z,12.25
2023-05-28T18:30:52.641Z,13.00
2023-05-28T18:33:20.046Z,12.23
2023-05-28T18:35:47.241Z,9.80
2023-05-28T18:38:15.611Z,10.23
2023-05-28T18:40:42.674Z,16.77
2023-05-28T18:43:09.741Z,14.55
2023-05-28T18:45:36.738Z,13.32
2023-05-28T18:48:04.044Z,12.93
2023-05-28T18:50:31.377Z,11.75
2023-05-28T18:52:58.798Z,15.20
2023-05-28T18:55:26.463Z,13.25
2023-05-28T18:57:53.636Z,12.02
2023-05-28T19:00:20.742Z,11.23
2023-05-28T19:02:48.012Z,11.05
2023-05-28T19:05:15.207Z,10.88
2023-05-28T19:07:42.327Z,10.85
2023-05-28T19:10:09.891Z,12.50
2023-05-28T19:12:37.003Z,10.93
2023-05-28T19:15:05.266Z,15.48
2023-05-28T19:17:32.701Z,12.25
2023-05-28T19:19:59.899Z,12.18
2023-05-28T19:22:27.068Z,8.75
2023-05-28T19:25:04.732Z,9.82
2023-05-28T19:27:32.625Z,11.27
2023-05-28T19:29:59.814Z,13.15
2023-05-28T19:32:27.745Z,9.85
2023-05-28T19:34:57.995Z,13.70
2023-05-28T19:37:25.190Z,10.15
2023-05-28T19:39:52.313Z,10.90
2023-05-28T19:42:19.948Z,11.43
2023-05-28T19:44:47.856Z,13.75
2023-05-28T19:47:15.308Z,12.88
2023-05-28T19:49:42.353Z,11.32
2023-05-28T19:52:09.330Z,10.73
2023-05-28T19:54:36.673Z,10.27
2023-05-28T19:57:04.328Z,8.52
2023-05-28T19:59:31.503Z,12.68
2023-05-28T20:02:00.131Z,10.75
2023-05-28T20:04:27.354Z,13.15
2023-05-28T20:06:55.148Z,9.57
2023-05-28T20:09:22.098Z,11.25
2023-05-28T20:11:50.752Z,14.00
2023-05-28T20:14:17.754Z,11.63
2023-05-28T20:16:47.397Z,11.90
2023-05-28T20:19:14.733Z,14.13
2023-05-28T20:21:41.869Z,11.70
2023-05-28T20:24:09.028Z,11.27
2023-05-28T20:26:37.758Z,14.48
2023-05-28T20:29:04.864Z,13.20
2023-05-28T20:31:32.073Z,10.00
2023-05-28T20:33:59.230Z,16.45
2023-05-28T20:36:26.712Z,15.20
2023-05-28T20:38:53.872Z,8.55
2023-05-28T20:41:23.242Z,12.93
2023-05-28T20:43:50.343Z,10.88
2023-05-28T20:46:17.770Z,11.55
2023-05-28T20:48:45.132Z,11.32
2023-05-28T20:51:12.142Z,13.27
2023-05-28T20:53:39.173Z,7.78
2023-05-28T20:56:07.521Z,12.60
2023-05-28T20:58:35.034Z,14.18
2023-05-28T21:01:02.306Z,10.80
2023-05-28T21:03:29.480Z,13.88
2023-05-28T21:05:56.531Z,10.80
2023-05-28T21:08:23.527Z,16.45
2023-05-28T21:10:50.835Z,11.52
2023-05-28T21:13:17.864Z,14.38
2023-05-28T21:15:44.947Z,11.57
2023-05-28T21:18:12.046Z,12.82
2023-05-28T21:20:39.912Z,9.45
2023-05-28T21:23:07.265Z,13.10
2023-05-28T21:25:34.513Z,16.85
2023-05-28T21:28:01.585Z,11.80
2023-05-28T21:30:30.984Z,12.02
2023-05-28T21:32:58.690Z,14.15
2023-05-28T21:35:25.978Z,11.55
2023-05-28T21:37:53.059Z,18.05
2023-05-28T21:40:22.306Z,12.55
2023-05-28T21:42:50.595Z,13.00
2023-05-28T21:45:18.087Z,9.68
2023-05-28T21:47:45.269Z,12.93
2023-05-28T21:50:12.668Z,12.38
2023-05-28T21:52:40.317Z,13.70
2023-05-28T21:55:07.877Z,14.90
2023-05-28T21:57:35.022Z,11.23
2023-05-28T22:00:02.252Z,10.82
2023-05-28T22:02:29.474Z,14.35
2023-05-28T22:04:57.130Z,14.52
2023-05-28T22:07:27.802Z,13.60
2023-05-28T22:09:55.574Z,15.15
2023-05-28T22:12:23.401Z,12.57
2023-05-28T22:14:50.518Z,12.00
2023-05-28T22:17:19.447Z,12.95
2023-05-28T22:19:46.656Z,10.93
2023-05-28T22:22:14.937Z,11.77
2023-05-28T22:24:47.567Z,12.00
2023-05-28T22:27:14.672Z,11.73
2023-05-28T22:29:41.691Z,11.27
2023-05-28T22:32:09.036Z,15.30
2023-05-28T22:34:36.641Z,11.82
2023-05-28T22:37:04.440Z,13.98
2023-05-28T22:39:32.069Z,13.07
2023-05-28T22:42:00.898Z,10.15
2023-05-28T22:44:29.523Z,17.08
2023-05-28T22:46:59.450Z,12.98
2023-05-28T22:49:29.901Z,9.55
2023-05-28T22:51:57.534Z,13.50
2023-05-28T22:54:25.554Z,11.45
2023-05-28T22:56:53.969Z,18.00
2023-05-28T22:59:22.010Z,12.70
2023-05-28T23:01:49.768Z,13.50
2023-05-28T23:04:17.548Z,10.65
2023-05-28T23:06:44.956Z,13.38
2023-05-28T23:09:12.152Z,9.85
2023-05-28T23:11:42.030Z,12.80
2023-05-28T23:14:10.142Z,11.45
2023-05-28T23:16:38.717Z,11.65
2023-05-28T23:19:05.838Z,14.65
2023-05-28T23:21:32.925Z,12.27
2023-05-28T23:24:01.125Z,11.30
2023-05-28T23:26:28.213Z,10.70
2023-05-28T23:28:55.361Z,11.57
2023-05-28T23:31:22.478Z,12.43
2023-05-28T23:33:49.681Z,10.95
2023-05-28T23:36:16.831Z,13.10
2023-05-28T23:38:43.881Z,12.95
2023-05-28T23:41:10.887Z,12.20
2023-05-28T23:43:37.971Z,13.18
2023-05-28T23:46:07.137Z,12.55
2023-05-28T23:48:34.375Z,14.32
2023-05-28T23:51:01.377Z,13.77
2023-05-28T23:53:28.427Z,13.98
2023-05-28T23:55:55.732Z,14.18
2023-05-28T23:58:23.028Z,15.02
